Time;durP1;ratioP1;P1;durP2;ratioP2;P2;SDS_P1;SDS_P2;PMS_P1;PMS_P2;Temp;Humidity;BMP_temperature;BMP_pressure;BME280_temperature;BME280_humidity;BME280_pressure;Samples;Min_cycle;Max_cycle;Signal;HPM_P1;HPM_P2
2021/07/14 00:01:33;;;;;;;19.75;10.63;;;17.70;99.90;;;;;;5077099;28;20272;-82
2021/07/14 00:03:59;;;;;;;19.05;10.23;;;17.70;99.90;;;;;;5076354;28;20237;-83
2021/07/14 00:06:24;;;;;;;17.63;9.90;;;17.70;99.90;;;;;;5059844;28;20221;-83
2021/07/14 00:08:50;;;;;;;17.70;10.80;;;17.50;99.90;;;;;;5095566;28;20227;-83
2021/07/14 00:11:16;;;;;;;23.65;11.30;;;17.60;99.90;;;;;;5060236;28;20631;-82
2021/07/14 00:14:15;;;;;;;22.08;10.85;;;17.60;99.90;;;;;;5095268;28;20174;-83
2021/07/14 00:22:11;;;;;;;18.27;10.63;;;17.50;99.90;;;;;;5078510;28;20201;-82
2021/07/14 00:24:38;;;;;;;18.05;11.10;;;17.50;99.90;;;;;;5079071;28;20548;-82
2021/07/14 00:27:06;;;;;;;18.42;10.05;;;17.60;99.90;;;;;;5065086;28;20245;-82
2021/07/14 00:29:35;;;;;;;20.67;10.55;;;17.50;99.90;;;;;;5077059;28;20182;-83
2021/07/14 00:32:01;;;;;;;17.15;10.52;;;17.50;99.90;;;;;;5093053;28;20725;-83
2021/07/14 00:34:27;;;;;;;17.85;10.85;;;17.60;99.90;;;;;;5094496;28;20166;-82
2021/07/14 00:36:52;;;;;;;22.92;10.75;;;17.60;99.90;;;;;;5077159;28;20264;-82
2021/07/14 00:39:21;;;;;;;20.20;10.98;;;17.60;99.90;;;;;;5094813;28;20174;-83
2021/07/14 00:41:47;;;;;;;13.63;10.15;;;17.70;99.90;;;;;;5075793;28;20162;-82
2021/07/14 00:44:13;;;;;;;19.00;10.63;;;17.70;99.90;;;;;;5056900;28;20694;-83
2021/07/14 00:46:40;;;;;;;19.90;10.82;;;17.70;99.90;;;;;;5074435;28;20209;-83
2021/07/14 00:49:06;;;;;;;16.92;11.48;;;17.70;99.90;;;;;;5074681;28;20616;-82
2021/07/14 00:51:32;;;;;;;12.73;10.55;;;17.70;99.90;;;;;;5074467;28;20177;-82
2021/07/14 00:53:59;;;;;;;16.58;10.90;;;17.70;99.90;;;;;;5078032;28;20269;-82
2021/07/14 00:56:26;;;;;;;20.17;11.57;;;17.70;99.90;;;;;;5066926;28;20181;-81
2021/07/14 00:58:54;;;;;;;17.13;11.55;;;17.70;99.90;;;;;;5056908;28;20616;-82
2021/07/14 01:01:20;;;;;;;19.20;12.20;;;17.70;99.90;;;;;;5076665;28;20251;-82
2021/07/14 01:04:14;;;;;;;17.17;12.20;;;17.60;99.90;;;;;;5060103;28;20358;-82
2021/07/14 01:06:52;;;;;;;15.20;11.80;;;17.50;99.90;;;;;;5075592;28;20166;-82
2021/07/14 01:09:38;;;;;;;17.73;12.30;;;17.50;99.90;;;;;;5093482;28;20173;-82
2021/07/14 01:12:15;;;;;;;15.82;11.50;;;17.60;99.90;;;;;;5093494;28;20215;-82
2021/07/14 01:15:26;;;;;;;24.05;12.10;;;17.60;99.90;;;;;;5064039;28;20257;-82
2021/07/14 01:17:55;;;;;;;16.13;11.70;;;17.60;99.90;;;;;;5069054;28;20704;-82
2021/07/14 01:20:42;;;;;;;25.27;12.82;;;17.60;99.90;;;;;;5073053;28;20197;-82
2021/07/14 01:23:23;;;;;;;26.45;12.55;;;17.60;99.90;;;;;;5055112;28;20640;-82
2021/07/14 01:25:51;;;;;;;25.98;13.48;;;17.60;99.90;;;;;;5056267;28;20695;-82
2021/07/14 01:28:19;;;;;;;28.70;14.27;;;17.60;99.90;;;;;;5073167;28;20174;-82
2021/07/14 01:30:46;;;;;;;20.65;13.90;;;17.70;99.90;;;;;;5072949;28;20174;-82
2021/07/14 01:33:14;;;;;;;31.85;13.90;;;17.70;99.90;;;;;;5040183;28;20221;-82
2021/07/14 01:35:45;;;;;;;21.05;12.80;;;17.70;99.90;;;;;;5073449;28;20173;-82
2021/07/14 01:38:12;;;;;;;24.70;13.88;;;17.60;99.90;;;;;;5093214;28;20166;-81
2021/07/14 01:40:40;;;;;;;22.20;13.95;;;17.70;99.90;;;;;;5074676;28;20226;-83
2021/07/14 01:43:07;;;;;;;24.77;14.02;;;17.70;99.90;;;;;;5075002;28;20190;-82
2021/07/14 01:45:37;;;;;;;32.42;13.95;;;17.60;99.90;;;;;;5056781;28;20227;-82
2021/07/14 01:48:04;;;;;;;33.25;13.38;;;17.60;99.90;;;;;;5082503;28;20175;-83
2021/07/14 01:50:32;;;;;;;27.20;13.88;;;17.50;99.90;;;;;;5072578;28;20163;-83
2021/07/14 01:52:59;;;;;;;22.88;13.27;;;17.50;99.90;;;;;;5072898;28;20225;-82
2021/07/14 01:55:26;;;;;;;26.58;14.60;;;17.50;99.90;;;;;;5072773;28;20175;-83
2021/07/14 01:57:54;;;;;;;21.17;13.10;;;17.60;99.90;;;;;;5073870;28;20186;-83
2021/07/14 02:00:20;;;;;;;20.35;13.20;;;17.60;99.90;;;;;;5055161;28;20224;-83
2021/07/14 02:05:38;;;;;;;20.83;12.75;;;17.50;99.90;;;;;;5076483;28;20301;-83
2021/07/14 02:08:04;;;;;;;22.25;12.75;;;17.50;99.90;;;;;;5077358;28;20167;-83
2021/07/14 02:10:32;;;;;;;26.20;12.63;;;17.60;99.90;;;;;;5058819;28;20178;-83
2021/07/14 02:13:00;;;;;;;27.35;12.63;;;17.60;99.90;;;;;;5076520;28;20179;-83
2021/07/14 02:15:34;;;;;;;20.38;12.02;;;17.70;99.90;;;;;;5057830;28;20183;-83
2021/07/14 02:18:06;;;;;;;30.52;13.52;;;17.70;99.90;;;;;;5052061;28;20163;-83
2021/07/14 02:20:32;;;;;;;31.77;13.30;;;17.70;99.90;;;;;;5077783;28;20162;-83
2021/07/14 02:22:58;;;;;;;20.05;12.75;;;17.70;99.90;;;;;;5095890;28;20692;-83
2021/07/14 02:25:24;;;;;;;31.17;13.07;;;17.70;99.90;;;;;;5061710;28;20239;-83
2021/07/14 02:27:50;;;;;;;25.50;13.15;;;17.70;99.90;;;;;;5096443;28;20548;-83
2021/07/14 02:30:20;;;;;;;22.58;13.05;;;17.70;99.90;;;;;;5060705;28;20178;-84
2021/07/14 02:33:00;;;;;;;20.42;13.10;;;17.70;99.90;;;;;;5076212;28;20167;-83
2021/07/14 02:35:27;;;;;;;27.55;14.32;;;17.60;99.90;;;;;;5077589;28;20204;-83
2021/07/14 02:38:07;;;;;;;29.10;14.52;;;17.60;99.90;;;;;;5096519;28;20211;-84
2021/07/14 02:40:40;;;;;;;35.22;14.25;;;17.60;99.90;;;;;;5076444;28;20170;-82
2021/07/14 02:43:07;;;;;;;34.65;14.05;;;17.60;99.90;;;;;;5077562;28;20288;-83
2021/07/14 02:45:41;;;;;;;32.90;14.95;;;17.60;99.90;;;;;;5077906;28;20175;-82
2021/07/14 02:48:08;;;;;;;19.83;13.38;;;17.60;99.90;;;;;;5086337;28;20170;-83
2021/07/14 02:50:34;;;;;;;28.20;14.35;;;17.60;99.90;;;;;;5058881;28;20171;-82
2021/07/14 02:53:12;;;;;;;26.63;14.27;;;17.60;99.90;;;;;;5057305;28;20189;-82
2021/07/14 02:55:39;;;;;;;27.63;14.52;;;17.60;99.90;;;;;;5075561;28;20167;-82
2021/07/14 02:58:08;;;;;;;25.45;13.88;;;17.60;99.90;;;;;;5057014;28;20183;-82
2021/07/14 03:00:37;;;;;;;27.92;14.43;;;17.60;99.90;;;;;;5062770;28;20183;-82
2021/07/14 03:03:05;;;;;;;35.63;14.52;;;17.60;99.90;;;;;;5075204;28;20205;-82
2021/07/14 03:05:32;;;;;;;25.77;15.00;;;17.60;99.90;;;;;;5057247;28;20266;-83
2021/07/14 03:08:00;;;;;;;31.13;14.55;;;17.70;99.90;;;;;;5057194;28;20248;-82
2021/07/14 03:10:27;;;;;;;33.58;15.82;;;17.80;99.90;;;;;;5075164;28;20178;-82
2021/07/14 03:12:57;;;;;;;28.70;14.20;;;17.70;99.90;;;;;;5057934;28;20179;-83
2021/07/14 03:15:25;;;;;;;33.92;15.57;;;17.70;99.90;;;;;;5057152;28;20261;-82
2021/07/14 03:17:53;;;;;;;39.35;16.40;;;17.70;99.90;;;;;;5085571;28;20182;-83
2021/07/14 03:20:19;;;;;;;36.85;15.65;;;17.80;99.90;;;;;;5094485;28;20174;-83
2021/07/14 03:22:48;;;;;;;35.15;16.10;;;17.90;99.90;;;;;;5059850;28;20202;-83
2021/07/14 03:25:15;;;;;;;28.08;14.75;;;17.90;99.90;;;;;;5094974;28;20166;-82
2021/07/14 03:27:44;;;;;;;30.90;15.10;;;17.80;99.90;;;;;;5094600;28;20628;-83
2021/07/14 03:30:11;;;;;;;35.15;15.00;;;17.80;99.90;;;;;;5095094;28;20248;-83
2021/07/14 03:32:41;;;;;;;29.10;14.77;;;17.80;99.90;;;;;;5074137;28;20693;-83
2021/07/14 03:35:08;;;;;;;34.33;15.25;;;17.90;99.90;;;;;;5094909;28;20166;-83
2021/07/14 03:37:36;;;;;;;25.17;13.95;;;17.90;99.90;;;;;;5043819;28;20277;-83
2021/07/14 03:40:04;;;;;;;32.97;14.98;;;18.00;99.90;;;;;;5076811;28;20166;-83
2021/07/14 03:42:31;;;;;;;38.33;15.00;;;18.00;99.90;;;;;;5094856;28;20190;-83
2021/07/14 03:44:58;;;;;;;31.10;14.90;;;18.10;99.90;;;;;;5059123;28;20228;-82
2021/07/14 03:47:24;;;;;;;38.17;15.90;;;18.10;99.90;;;;;;5061944;28;20178;-83
2021/07/14 03:49:51;;;;;;;33.35;15.32;;;17.90;99.90;;;;;;5094453;28;20240;-83
2021/07/14 03:52:19;;;;;;;28.35;14.65;;;18.00;99.90;;;;;;5094671;28;20178;-83
2021/07/14 03:54:45;;;;;;;37.13;14.75;;;17.90;99.90;;;;;;5074705;28;20170;-82
2021/07/14 03:57:11;;;;;;;32.85;14.13;;;18.00;99.90;;;;;;5076395;28;20192;-83
2021/07/14 03:59:38;;;;;;;34.08;15.38;;;18.00;99.90;;;;;;5076188;28;20247;-83
2021/07/14 04:02:07;;;;;;;31.38;14.27;;;18.00;99.90;;;;;;5073607;28;20185;-83
2021/07/14 04:04:32;;;;;;;36.42;14.93;;;18.10;99.90;;;;;;5092808;28;20167;-83
2021/07/14 04:07:02;;;;;;;32.05;15.07;;;17.90;99.90;;;;;;5076474;28;20262;-83
2021/07/14 04:09:27;;;;;;;32.90;15.18;;;17.90;99.90;;;;;;5094825;28;20198;-83
2021/07/14 04:11:59;;;;;;;38.55;15.30;;;18.00;99.90;;;;;;5082298;28;20170;-83
2021/07/14 04:14:27;;;;;;;33.75;16.20;;;18.00;99.90;;;;;;5100272;28;20161;-83
2021/07/14 04:16:54;;;;;;;39.08;15.65;;;18.10;99.90;;;;;;5074718;28;20198;-83
2021/07/14 04:19:20;;;;;;;40.63;15.02;;;18.00;99.90;;;;;;5074286;28;20589;-84
2021/07/14 04:21:46;;;;;;;40.17;15.60;;;17.90;99.90;;;;;;5094106;28;20174;-83
2021/07/14 04:24:12;;;;;;;38.05;16.27;;;17.90;99.90;;;;;;5075663;28;20256;-83
2021/07/14 04:26:37;;;;;;;51.35;15.43;;;17.90;99.90;;;;;;5073993;28;20231;-83
2021/07/14 04:29:04;;;;;;;40.75;15.25;;;18.00;99.90;;;;;;5044188;28;20625;-83
2021/07/14 04:31:31;;;;;;;38.67;16.48;;;18.10;99.90;;;;;;5080582;28;20170;-83
2021/07/14 04:33:57;;;;;;;36.45;15.63;;;18.10;99.90;;;;;;5076138;28;20269;-83
2021/07/14 04:36:23;;;;;;;38.42;15.95;;;18.10;99.90;;;;;;5092221;28;20596;-83
2021/07/14 04:38:49;;;;;;;38.92;16.30;;;18.20;99.90;;;;;;5075544;28;20187;-83
2021/07/14 04:41:15;;;;;;;39.25;17.35;;;18.20;99.90;;;;;;5094048;28;20172;-82
2021/07/14 04:43:41;;;;;;;42.17;16.63;;;18.10;99.90;;;;;;5075998;28;20281;-83
2021/07/14 04:46:06;;;;;;;40.60;16.70;;;18.10;99.90;;;;;;5075329;28;20186;-83
2021/07/14 04:48:32;;;;;;;37.22;18.63;;;18.10;99.90;;;;;;5062248;28;20175;-84
2021/07/14 04:50:58;;;;;;;46.05;18.25;;;18.10;99.90;;;;;;5055763;28;20201;-83
2021/07/14 04:53:24;;;;;;;45.03;18.08;;;18.00;99.90;;;;;;5039216;28;20182;-84
2021/07/14 04:55:49;;;;;;;45.78;19.17;;;18.00;99.90;;;;;;5039079;28;20217;-84
2021/07/14 04:58:15;;;;;;;38.08;17.30;;;18.00;99.90;;;;;;5056935;28;20190;-83
2021/07/14 05:00:40;;;;;;;36.58;18.50;;;17.90;99.90;;;;;;5055753;28;20216;-84
2021/07/14 05:03:06;;;;;;;50.22;18.67;;;17.90;99.90;;;;;;5055504;28;20251;-83
2021/07/14 05:05:32;;;;;;;48.28;18.45;;;17.90;99.90;;;;;;5072417;28;20179;-83
2021/07/14 05:07:58;;;;;;;38.67;17.75;;;17.80;99.90;;;;;;5064027;28;20698;-83
2021/07/14 05:10:32;;;;;;;50.67;19.60;;;17.80;99.90;;;;;;5038958;28;20170;-83
2021/07/14 05:12:58;;;;;;;53.78;20.15;;;17.80;99.90;;;;;;5055844;28;20174;-83
2021/07/14 05:15:24;;;;;;;33.92;18.65;;;17.80;99.90;;;;;;5073518;28;20224;-82
2021/07/14 05:17:51;;;;;;;49.35;20.67;;;17.80;99.90;;;;;;5081347;28;20173;-83
2021/07/14 05:20:20;;;;;;;39.72;19.45;;;17.70;99.90;;;;;;5075463;28;20543;-83
2021/07/14 05:22:46;;;;;;;44.85;19.33;;;17.80;99.90;;;;;;5093698;28;20594;-83
2021/07/14 05:25:12;;;;;;;44.10;19.65;;;17.80;99.90;;;;;;5093339;28;20178;-84
2021/07/14 05:27:38;;;;;;;43.33;20.30;;;17.90;99.90;;;;;;5075236;28;20231;-83
2021/07/14 05:30:07;;;;;;;38.17;19.77;;;17.90;99.90;;;;;;5091773;28;20166;-83
2021/07/14 05:32:33;;;;;;;46.17;19.92;;;17.90;99.90;;;;;;5075671;28;20205;-83
2021/07/14 05:34:59;;;;;;;42.10;19.38;;;17.90;99.90;;;;;;5075352;28;20257;-83
2021/07/14 05:37:25;;;;;;;42.50;19.20;;;18.00;99.90;;;;;;5094836;28;20261;-83
2021/07/14 05:39:51;;;;;;;46.28;18.70;;;17.90;99.90;;;;;;5095528;28;20644;-83
2021/07/14 05:42:16;;;;;;;43.70;19.05;;;17.90;99.90;;;;;;5062300;28;20289;-83
2021/07/14 05:44:42;;;;;;;48.65;19.50;;;17.90;99.90;;;;;;5079097;28;20174;-83
2021/07/14 05:47:07;;;;;;;36.10;18.42;;;17.80;99.90;;;;;;5093570;28;20183;-83
2021/07/14 05:49:33;;;;;;;47.42;19.25;;;17.80;99.90;;;;;;5088995;28;20222;-83
2021/07/14 05:51:59;;;;;;;41.38;18.27;;;17.80;99.90;;;;;;5097127;28;20182;-83
2021/07/14 05:54:24;;;;;;;36.72;18.25;;;17.90;99.90;;;;;;5078515;28;20186;-83
2021/07/14 05:56:50;;;;;;;37.58;18.70;;;18.00;99.90;;;;;;5097217;28;20222;-83
2021/07/14 05:59:16;;;;;;;41.70;17.75;;;18.00;99.90;;;;;;5089061;28;20280;-83
2021/07/14 06:01:41;;;;;;;32.03;17.08;;;18.10;99.90;;;;;;5056162;28;20183;-83
2021/07/14 06:04:07;;;;;;;32.70;16.98;;;18.10;99.90;;;;;;5077523;28;20190;-83
2021/07/14 06:06:32;;;;;;;31.85;16.00;;;18.10;99.90;;;;;;5058719;28;20195;-82
2021/07/14 06:08:58;;;;;;;29.98;16.42;;;18.00;99.90;;;;;;5042352;28;20179;-83
2021/07/14 06:11:24;;;;;;;32.47;16.20;;;17.90;99.90;;;;;;5077844;28;20174;-84
2021/07/14 06:13:51;;;;;;;30.95;14.98;;;17.90;99.90;;;;;;5076083;28;20208;-83
2021/07/14 06:16:16;;;;;;;20.50;13.35;;;17.80;99.90;;;;;;5076365;28;20167;-83
2021/07/14 06:18:42;;;;;;;25.27;14.93;;;17.70;99.90;;;;;;5091925;28;20182;-83
2021/07/14 06:21:08;;;;;;;29.02;14.75;;;17.80;99.90;;;;;;5076585;28;20227;-83
2021/07/14 06:23:33;;;;;;;21.23;13.70;;;17.70;99.90;;;;;;5094552;28;20186;-83
2021/07/14 06:26:00;;;;;;;24.08;13.32;;;17.70;99.90;;;;;;5096767;28;20174;-83
2021/07/14 06:28:26;;;;;;;23.00;12.10;;;17.80;99.90;;;;;;5076829;28;20178;-83
2021/07/14 06:30:52;;;;;;;20.42;12.60;;;17.70;99.90;;;;;;5076021;28;20254;-83
2021/07/14 06:33:17;;;;;;;28.35;14.13;;;17.60;99.90;;;;;;5052454;28;20194;-83
2021/07/14 06:35:43;;;;;;;20.80;11.48;;;17.60;99.90;;;;;;5076698;28;20178;-82
2021/07/14 06:38:09;;;;;;;19.80;12.13;;;17.60;99.90;;;;;;5077648;28;20170;-82
2021/07/14 06:40:37;;;;;;;22.65;12.00;;;17.60;99.90;;;;;;5042240;28;20167;-82
2021/07/14 06:43:08;;;;;;;23.00;12.18;;;17.60;99.90;;;;;;5078333;28;20718;-82
2021/07/14 06:45:33;;;;;;;21.48;10.77;;;17.60;99.90;;;;;;5079891;28;20163;-82
2021/07/14 06:47:59;;;;;;;24.80;12.18;;;17.70;99.90;;;;;;5093723;28;20634;-82
2021/07/14 06:50:25;;;;;;;25.52;11.73;;;17.70;99.90;;;;;;5078734;28;20208;-83
2021/07/14 06:52:50;;;;;;;20.23;10.63;;;17.80;99.90;;;;;;5078481;28;20174;-82
2021/07/14 06:55:16;;;;;;;15.43;10.77;;;17.90;99.90;;;;;;5094770;28;20174;-82
2021/07/14 06:57:45;;;;;;;18.45;10.60;;;17.90;99.90;;;;;;5078453;28;20650;-83
2021/07/14 07:00:12;;;;;;;12.07;9.35;;;17.90;99.90;;;;;;5063046;28;20171;-81
2021/07/14 07:02:39;;;;;;;13.45;9.63;;;17.90;99.90;;;;;;5058308;28;20203;-82
2021/07/14 07:05:06;;;;;;;11.20;8.90;;;18.00;99.90;;;;;;5064157;28;20277;-83
2021/07/14 07:07:32;;;;;;;14.30;9.40;;;18.00;99.90;;;;;;5078623;28;20220;-82
2021/07/14 07:09:58;;;;;;;12.68;9.10;;;18.10;99.90;;;;;;5077885;28;20170;-82
2021/07/14 07:12:24;;;;;;;11.95;8.70;;;18.20;99.90;;;;;;5077915;28;20170;-83
2021/07/14 07:14:50;;;;;;;16.52;8.45;;;18.20;99.90;;;;;;5076581;28;20177;-82
2021/07/14 07:17:16;;;;;;;10.10;8.48;;;18.20;99.90;;;;;;5092400;28;20185;-82
2021/07/14 07:19:41;;;;;;;14.57;9.40;;;18.20;99.90;;;;;;5075371;28;20171;-82
2021/07/14 07:22:07;;;;;;;10.73;9.43;;;18.10;99.90;;;;;;5075573;28;20167;-82
2021/07/14 07:24:33;;;;;;;17.17;9.82;;;18.10;99.90;;;;;;5075321;28;20178;-81
2021/07/14 07:26:59;;;;;;;11.93;9.70;;;18.10;99.90;;;;;;5055998;28;20532;-82
2021/07/14 07:29:25;;;;;;;11.32;9.32;;;18.20;99.90;;;;;;5077875;28;20182;-83
2021/07/14 07:31:51;;;;;;;14.52;10.02;;;18.20;99.90;;;;;;5077682;28;20196;-83
2021/07/14 07:34:19;;;;;;;12.27;9.02;;;18.30;99.90;;;;;;5095615;28;20272;-83
2021/07/14 07:36:46;;;;;;;9.63;8.75;;;18.30;99.90;;;;;;5085846;28;20268;-82
2021/07/14 07:39:14;;;;;;;12.73;9.48;;;18.40;99.90;;;;;;5057108;28;20182;-82
2021/07/14 07:41:40;;;;;;;10.70;9.43;;;18.40;99.90;;;;;;5040884;28;20179;-83
2021/07/14 07:44:06;;;;;;;10.35;8.30;;;18.50;99.90;;;;;;5057185;28;20194;-81
2021/07/14 07:46:32;;;;;;;12.60;9.65;;;18.40;99.90;;;;;;5076955;28;20533;-83
2021/07/14 07:48:58;;;;;;;10.52;9.50;;;18.30;99.90;;;;;;5075392;28;20179;-82
2021/07/14 07:51:23;;;;;;;9.77;8.82;;;18.40;99.90;;;;;;5040545;28;20198;-83
2021/07/14 07:53:49;;;;;;;12.60;7.63;;;18.50;99.90;;;;;;5057926;28;20170;-84
2021/07/14 07:56:15;;;;;;;7.97;7.20;;;18.60;99.90;;;;;;5075449;28;20174;-83
2021/07/14 07:58:43;;;;;;;8.20;7.40;;;18.50;99.90;;;;;;5050963;28;20615;-82
2021/07/14 08:01:10;;;;;;;12.52;7.22;;;18.60;99.90;;;;;;5073518;28;20270;-83
2021/07/14 08:03:35;;;;;;;7.03;6.40;;;18.60;99.90;;;;;;5074316;28;20193;-83
2021/07/14 08:06:01;;;;;;;9.88;6.65;;;18.60;99.90;;;;;;5024025;28;20175;-82
2021/07/14 08:08:28;;;;;;;7.35;6.28;;;18.60;99.90;;;;;;5057352;28;20656;-83
2021/07/14 08:10:56;;;;;;;11.80;7.65;;;18.50;99.90;;;;;;5056478;28;20224;-82
2021/07/14 08:13:22;;;;;;;11.60;6.93;;;18.40;99.90;;;;;;5023750;28;20178;-83
2021/07/14 08:15:48;;;;;;;8.60;7.70;;;18.40;99.90;;;;;;5056216;28;20213;-82
2021/07/14 08:18:14;;;;;;;11.85;8.38;;;18.30;99.90;;;;;;5069123;28;20197;-84
2021/07/14 08:20:39;;;;;;;10.43;8.05;;;18.20;99.90;;;;;;5092344;28;20627;-82
2021/07/14 08:23:05;;;;;;;12.13;8.90;;;18.10;99.90;;;;;;5059294;28;20212;-83
2021/07/14 08:25:31;;;;;;;14.90;9.50;;;17.90;99.90;;;;;;5093730;28;20166;-82
2021/07/14 08:27:56;;;;;;;16.30;9.30;;;18.00;99.90;;;;;;5075979;28;20174;-81
2021/07/14 08:30:22;;;;;;;12.90;9.85;;;18.00;99.90;;;;;;5058923;28;20269;-81
2021/07/14 08:32:48;;;;;;;15.02;9.90;;;18.00;99.90;;;;;;5093944;28;20182;-81
2021/07/14 08:35:14;;;;;;;10.95;7.68;;;18.00;99.90;;;;;;5075186;28;20170;-81
2021/07/14 08:37:40;;;;;;;9.30;7.93;;;18.10;99.90;;;;;;5093923;28;20215;-82
2021/07/14 08:40:08;;;;;;;9.77;8.77;;;18.20;99.90;;;;;;5092191;28;20173;-81
2021/07/14 08:42:36;;;;;;;14.30;7.70;;;18.40;99.90;;;;;;5093702;28;20196;-82
2021/07/14 08:45:05;;;;;;;12.85;8.50;;;18.50;99.90;;;;;;5075679;28;20166;-83
2021/07/14 08:47:31;;;;;;;9.15;7.70;;;18.50;99.90;;;;;;5093085;28;20202;-82
2021/07/14 08:49:57;;;;;;;10.85;8.02;;;18.60;99.90;;;;;;5071915;28;20226;-82
2021/07/14 08:52:23;;;;;;;11.85;8.30;;;18.70;99.90;;;;;;5056377;28;20236;-82
2021/07/14 08:54:49;;;;;;;10.93;7.65;;;18.80;99.90;;;;;;5058443;28;20172;-82
2021/07/14 08:57:16;;;;;;;8.48;7.00;;;18.60;99.90;;;;;;5055113;28;20209;-84
2021/07/14 08:59:43;;;;;;;8.13;6.50;;;18.60;99.90;;;;;;5038928;28;20185;-83
2021/07/14 09:02:08;;;;;;;7.95;5.93;;;18.60;99.90;;;;;;5053924;28;20189;-84
2021/07/14 09:04:35;;;;;;;7.15;6.40;;;18.50;99.90;;;;;;5073750;28;20159;-85
2021/07/14 09:07:00;;;;;;;6.68;6.10;;;18.60;99.90;;;;;;5059229;28;20656;-83
2021/07/14 09:09:26;;;;;;;6.63;5.90;;;18.70;99.90;;;;;;5081394;28;20261;-82
2021/07/14 09:11:58;;;;;;;8.38;6.22;;;18.80;99.90;;;;;;5076952;28;20205;-84
2021/07/14 09:14:27;;;;;;;8.68;6.50;;;18.80;99.90;;;;;;5043006;28;20194;-82
2021/07/14 09:16:53;;;;;;;8.27;6.43;;;18.90;99.90;;;;;;5087794;28;20166;-83
2021/07/14 09:19:24;;;;;;;9.52;6.60;;;18.90;99.90;;;;;;5079618;28;20193;-83
2021/07/14 09:21:51;;;;;;;9.98;7.10;;;18.70;99.90;;;;;;5079480;28;20249;-83
2021/07/14 09:24:32;;;;;;;17.00;8.38;;;18.50;99.90;;;;;;5095717;28;20216;-84
2021/07/14 09:27:03;;;;;;;11.70;8.20;;;18.50;99.90;;;;;;5079013;28;20396;-82
2021/07/14 09:29:30;;;;;;;13.13;8.50;;;18.40;99.90;;;;;;5097569;28;20166;-83
2021/07/14 09:31:56;;;;;;;10.93;8.50;;;18.30;99.90;;;;;;5092784;28;20182;-82
2021/07/14 09:34:32;;;;;;;13.57;8.73;;;18.20;99.90;;;;;;5060268;28;20186;-83
2021/07/14 09:37:03;;;;;;;9.82;8.32;;;18.00;99.90;;;;;;5059024;28;20178;-82
2021/07/14 09:39:35;;;;;;;11.52;8.77;;;17.80;99.90;;;;;;5055798;28;20276;-83
2021/07/14 09:42:10;;;;;;;14.07;9.40;;;17.80;99.90;;;;;;5061015;28;20178;-83
2021/07/14 09:44:47;;;;;;;16.33;10.45;;;17.80;99.90;;;;;;5060713;28;20585;-85
2021/07/14 09:47:14;;;;;;;15.23;10.85;;;17.80;99.90;;;;;;5042826;28;20181;-84
2021/07/14 09:49:40;;;;;;;19.00;10.70;;;17.80;99.90;;;;;;5059780;28;20170;-84
2021/07/14 09:52:08;;;;;;;14.80;10.98;;;17.90;99.90;;;;;;5078066;28;20171;-83
2021/07/14 09:54:34;;;;;;;17.63;10.05;;;18.00;99.90;;;;;;5094132;28;20199;-84
2021/07/14 09:57:10;;;;;;;16.23;9.65;;;17.90;99.90;;;;;;5063405;28;20189;-85
2021/07/14 09:59:35;;;;;;;19.15;10.60;;;17.90;99.90;;;;;;5061846;28;20531;-82
2021/07/14 10:02:01;;;;;;;16.92;10.52;;;18.00;99.90;;;;;;5073659;28;20175;-82
2021/07/14 10:04:32;;;;;;;15.25;10.98;;;18.10;99.90;;;;;;5076352;28;20206;-82
2021/07/14 10:07:23;;;;;;;15.88;11.40;;;18.20;99.90;;;;;;5055460;28;20312;-81
2021/07/14 10:09:49;;;;;;;15.63;10.35;;;18.30;99.90;;;;;;5060329;28;20162;-82
2021/07/14 10:12:30;;;;;;;15.05;9.82;;;18.40;99.90;;;;;;5076200;28;20265;-83
2021/07/14 10:14:57;;;;;;;15.25;9.65;;;18.50;99.90;;;;;;5058332;28;20579;-84
2021/07/14 10:17:44;;;;;;;12.68;9.73;;;18.40;99.90;;;;;;5071054;28;20174;-78
2021/07/14 10:20:29;;;;;;;17.63;9.75;;;18.40;99.90;;;;;;5059775;28;20198;-84
2021/07/14 10:22:56;;;;;;;15.40;9.90;;;18.50;99.90;;;;;;5057431;28;20190;-85
2021/07/14 10:25:23;;;;;;;15.73;10.27;;;18.50;99.90;;;;;;5076405;28;20163;-85
2021/07/14 10:27:50;;;;;;;16.95;10.45;;;18.60;99.90;;;;;;5077317;28;20228;-84
2021/07/14 10:30:17;;;;;;;20.42;10.32;;;18.50;99.90;;;;;;5058284;28;20571;-84
2021/07/14 10:32:44;;;;;;;15.05;10.13;;;18.40;99.90;;;;;;5068661;28;20196;-85
2021/07/14 10:35:22;;;;;;;15.45;10.02;;;18.30;99.90;;;;;;5076972;28;20197;-86
2021/07/14 10:37:57;;;;;;;19.83;11.02;;;18.40;99.90;;;;;;5096300;28;20158;-83
2021/07/14 10:40:24;;;;;;;17.13;10.60;;;18.50;99.90;;;;;;5078084;28;20162;-83
2021/07/14 10:42:51;;;;;;;14.88;10.20;;;18.50;99.90;;;;;;5099765;28;20228;-85
2021/07/14 10:45:18;;;;;;;13.38;10.43;;;18.50;99.90;;;;;;5096596;28;20220;-86
2021/07/14 10:47:46;;;;;;;11.32;10.23;;;18.40;99.90;;;;;;5058505;28;20179;-85
2021/07/14 10:50:13;;;;;;;16.63;11.25;;;18.30;99.90;;;;;;5059050;28;20162;-87
2021/07/14 10:52:40;;;;;;;16.45;10.73;;;18.30;99.90;;;;;;5088252;28;20664;-79
2021/07/14 10:55:11;;;;;;;15.13;11.27;;;18.20;99.90;;;;;;5077465;28;20166;-79
2021/07/14 10:57:37;;;;;;;19.38;11.45;;;18.30;99.90;;;;;;5094086;28;20213;-79
2021/07/14 11:00:09;;;;;;;20.85;11.88;;;18.30;99.90;;;;;;5092367;28;20181;-81
2021/07/14 11:02:43;;;;;;;12.80;9.65;;;18.40;99.90;;;;;;5068140;28;20212;-84
2021/07/14 11:05:11;;;;;;;16.30;9.38;;;18.40;99.90;;;;;;5057175;28;20519;-81
2021/07/14 11:07:46;;;;;;;14.38;10.15;;;18.40;99.90;;;;;;5049940;28;20174;-80
2021/07/14 11:10:28;;;;;;;14.48;12.02;;;18.40;99.90;;;;;;5094855;28;20146;-83
2021/07/14 11:12:56;;;;;;;15.88;10.73;;;18.50;99.90;;;;;;5095837;28;20181;-86
2021/07/14 11:15:35;;;;;;;15.68;8.77;;;18.60;99.90;;;;;;5045726;28;20239;-83
2021/07/14 11:18:30;;;;;;;10.18;8.32;;;18.50;99.90;;;;;;5093006;28;20170;-84
2021/07/14 11:20:59;;;;;;;16.65;8.93;;;18.70;99.90;;;;;;5095163;28;20174;-82
2021/07/14 11:23:27;;;;;;;12.80;8.73;;;18.70;99.90;;;;;;5052348;28;20195;-84
2021/07/14 11:25:55;;;;;;;8.10;7.32;;;18.70;99.90;;;;;;5057194;28;20185;-82
2021/07/14 11:28:21;;;;;;;10.95;8.30;;;18.70;99.90;;;;;;5058020;28;20170;-84
2021/07/14 11:30:49;;;;;;;16.73;9.30;;;18.70;99.90;;;;;;5040944;28;20261;-84
2021/07/14 11:33:23;;;;;;;10.68;8.30;;;18.70;99.90;;;;;;5069998;28;20546;-84
2021/07/14 11:36:05;;;;;;;10.15;7.90;;;18.70;99.90;;;;;;5077200;28;20178;-84
2021/07/14 11:38:46;;;;;;;12.57;7.63;;;18.60;99.90;;;;;;5095219;28;20153;-84
2021/07/14 11:41:24;;;;;;;14.73;9.07;;;18.60;99.90;;;;;;5095578;28;20189;-85
2021/07/14 11:43:56;;;;;;;13.38;9.80;;;18.60;99.90;;;;;;5077323;28;20243;-83
2021/07/14 11:46:30;;;;;;;15.30;11.20;;;18.60;99.90;;;;;;5077040;28;20193;-85
2021/07/14 11:49:05;;;;;;;10.68;9.38;;;18.70;99.90;;;;;;5076748;28;20165;-85
2021/07/14 11:51:36;;;;;;;12.07;8.90;;;18.80;99.90;;;;;;5074557;28;20170;-82
2021/07/14 11:54:24;;;;;;;16.70;9.93;;;18.80;99.90;;;;;;5074313;28;20247;-83
2021/07/14 11:56:51;;;;;;;9.30;7.88;;;19.10;99.90;;;;;;5073781;28;20174;-83
2021/07/14 11:59:26;;;;;;;13.73;8.43;;;19.10;99.90;;;;;;5074155;28;20156;-83
2021/07/14 12:02:03;;;;;;;11.90;8.70;;;19.10;99.90;;;;;;5075204;28;20174;-85
2021/07/14 12:04:31;;;;;;;12.20;8.85;;;19.20;99.90;;;;;;5078947;28;20277;-82
2021/07/14 12:07:09;;;;;;;19.10;11.52;;;19.20;99.90;;;;;;5071843;28;20166;-82
2021/07/14 12:09:43;;;;;;;15.35;12.20;;;19.10;99.90;;;;;;5070548;28;20170;-82
2021/07/14 12:12:18;;;;;;;20.55;15.52;;;19.10;99.90;;;;;;5071590;28;20593;-82
2021/07/14 12:14:46;;;;;;;23.05;17.45;;;19.00;99.90;;;;;;5093738;28;20173;-83
2021/07/14 12:17:22;;;;;;;19.40;17.48;;;19.10;99.90;;;;;;5093011;28;20170;-82
2021/07/14 12:19:57;;;;;;;26.17;18.45;;;19.00;99.90;;;;;;5092424;28;20230;-84
2021/07/14 12:22:30;;;;;;;21.42;16.88;;;19.20;99.90;;;;;;5088231;28;20166;-82
2021/07/14 12:24:56;;;;;;;23.27;17.77;;;19.40;99.90;;;;;;5089014;28;20162;-83
2021/07/14 12:27:27;;;;;;;23.23;16.58;;;19.50;99.90;;;;;;5068495;28;20242;-83
2021/07/14 12:29:55;;;;;;;20.90;16.70;;;19.60;99.90;;;;;;5073508;28;20601;-84
2021/07/14 12:32:35;;;;;;;20.95;16.88;;;19.50;99.90;;;;;;5069909;28;20620;-83
2021/07/14 12:35:05;;;;;;;22.90;17.05;;;19.50;99.90;;;;;;5076732;28;20180;-83
2021/07/14 12:37:34;;;;;;;20.25;15.85;;;19.60;99.90;;;;;;5073323;28;20658;-83
2021/07/14 12:40:00;;;;;;;16.40;14.23;;;19.70;99.90;;;;;;5075429;28;20177;-84
2021/07/14 12:42:25;;;;;;;20.48;14.65;;;19.70;99.90;;;;;;5073706;28;20178;-84
2021/07/14 12:44:51;;;;;;;16.27;14.52;;;19.80;99.90;;;;;;5087725;28;20632;-84
2021/07/14 12:47:21;;;;;;;19.30;15.07;;;19.70;99.90;;;;;;5093424;28;20171;-85